createdAt,value
2018-02-02T00:02:18.082Z,38.12
2018-02-02T00:04:45.679Z,37.97
2018-02-02T00:07:13.356Z,38.09
2018-02-02T00:09:40.951Z,37.99
2018-02-02T00:12:08.525Z,38.08
2018-02-02T00:14:36.129Z,37.87
2018-02-02T00:17:03.720Z,38.04
2018-02-02T00:19:31.263Z,37.94
2018-02-02T00:21:58.861Z,38.02
2018-02-02T00:24:26.457Z,38.02
2018-02-02T00:26:53.984Z,37.85
2018-02-02T00:29:21.581Z,37.80
2018-02-02T00:31:49.180Z,37.78
2018-02-02T00:34:16.772Z,37.85
2018-02-02T00:36:44.355Z,37.82
2018-02-02T00:39:11.895Z,37.83
2018-02-02T00:41:39.492Z,37.80
2018-02-02T00:44:07.093Z,37.82
2018-02-02T00:46:34.695Z,37.90
2018-02-02T00:49:02.222Z,37.95
2018-02-02T00:54:30.802Z,37.97
2018-02-02T00:56:58.320Z,37.92
2018-02-02T00:59:25.913Z,37.86
2018-02-02T01:01:53.513Z,37.82
2018-02-02T01:04:21.034Z,37.77
2018-02-02T01:06:48.680Z,37.78
2018-02-02T01:09:16.280Z,37.82
2018-02-02T01:11:43.924Z,37.79
2018-02-02T01:14:11.520Z,37.86
2018-02-02T01:16:39.046Z,37.78
2018-02-02T01:19:06.701Z,37.80
2018-02-02T01:21:34.377Z,37.81
2018-02-02T01:24:01.954Z,37.66
2018-02-02T01:26:29.608Z,37.71
2018-02-02T01:28:57.212Z,37.53
2018-02-02T01:31:24.884Z,37.67
2018-02-02T01:33:52.484Z,37.50
2018-02-02T01:36:20.132Z,37.56
2018-02-02T01:38:47.721Z,37.39
2018-02-02T01:41:15.316Z,37.58
2018-02-02T01:43:42.928Z,37.46
2018-02-02T01:46:10.582Z,37.46
2018-02-02T01:48:38.168Z,37.39
2018-02-02T01:51:05.815Z,37.39
2018-02-02T01:53:33.424Z,37.30
2018-02-02T01:56:00.962Z,37.22
2018-02-02T01:58:28.618Z,37.30
2018-02-02T02:00:56.221Z,37.10
2018-02-02T02:03:23.759Z,37.15
2018-02-02T02:05:51.396Z,37.07
2018-02-02T02:08:18.988Z,37.22
2018-02-02T02:10:46.510Z,37.09
2018-02-02T02:13:14.151Z,37.10
2018-02-02T02:15:41.694Z,37.15
2018-02-02T02:18:09.364Z,37.15
2018-02-02T02:20:36.952Z,37.07
2018-02-02T02:23:04.478Z,37.09
2018-02-02T02:25:32.166Z,37.06
2018-02-02T02:27:59.697Z,36.87
2018-02-02T02:30:27.346Z,37.02
2018-02-02T02:32:54.940Z,37.01
2018-02-02T02:35:22.528Z,37.02
2018-02-02T02:37:50.052Z,37.05
2018-02-02T02:40:17.712Z,37.11
2018-02-02T02:42:45.368Z,37.08
2018-02-02T02:45:12.973Z,37.06
2018-02-02T02:47:40.565Z,36.98
2018-02-02T02:50:08.215Z,36.93
2018-02-02T02:52:35.808Z,36.83
2018-02-02T02:55:03.468Z,36.87
2018-02-02T02:57:31.061Z,36.88
2018-02-02T02:59:58.722Z,36.92
2018-02-02T03:02:26.320Z,36.91
2018-02-02T03:04:53.977Z,36.94
2018-02-02T03:07:21.576Z,36.83
2018-02-02T03:09:49.168Z,36.81
2018-02-02T03:12:16.834Z,36.86
2018-02-02T03:14:44.428Z,36.89
2018-02-02T03:17:12.022Z,36.72
2018-02-02T03:19:39.559Z,36.75
2018-02-02T03:22:07.189Z,36.61
2018-02-02T03:24:34.829Z,36.71
2018-02-02T03:27:02.433Z,36.61
2018-02-02T03:29:30.127Z,36.78
2018-02-02T03:31:57.727Z,36.63
2018-02-02T03:34:25.396Z,36.86
2018-02-02T03:36:52.992Z,36.73
2018-02-02T03:39:20.518Z,36.80
2018-02-02T03:41:48.176Z,36.89
2018-02-02T03:44:15.713Z,37.14
2018-02-02T03:46:43.231Z,38.18
2018-02-02T03:49:10.825Z,37.63
2018-02-02T03:51:38.435Z,37.71
2018-02-02T03:54:06.090Z,37.42
2018-02-02T03:56:33.676Z,37.46
2018-02-02T03:59:01.264Z,37.39
2018-02-02T04:01:28.853Z,37.59
2018-02-02T04:03:56.616Z,37.48
2018-02-02T04:06:24.213Z,37.40
2018-02-02T04:08:51.744Z,37.41
2018-02-02T04:11:19.340Z,37.41
2018-02-02T04:13:46.931Z,37.38
2018-02-02T04:16:14.581Z,37.21
2018-02-02T04:18:42.102Z,37.31
2018-02-02T04:21:09.750Z,37.02
2018-02-02T04:23:37.344Z,37.12
2018-02-02T04:26:04.867Z,37.11
2018-02-02T04:28:32.521Z,37.26
2018-02-02T04:31:00.047Z,37.19
2018-02-02T04:33:27.652Z,37.24
2018-02-02T04:35:55.278Z,37.23
2018-02-02T04:38:22.992Z,37.16
2018-02-02T04:40:50.514Z,37.11
2018-02-02T04:43:18.096Z,36.89
2018-02-02T04:45:45.689Z,36.83
2018-02-02T04:48:13.215Z,37.03
2018-02-02T04:50:40.739Z,37.27
2018-02-02T04:53:08.336Z,37.62
2018-02-02T04:55:35.923Z,37.68
2018-02-02T04:58:03.513Z,38.61
2018-02-02T05:00:31.108Z,39.39
2018-02-02T05:02:58.758Z,39.12
2018-02-02T05:05:26.280Z,39.65
2018-02-02T05:07:53.925Z,39.76
2018-02-02T05:10:21.512Z,39.75
2018-02-02T05:12:49.042Z,39.73
2018-02-02T05:15:16.698Z,39.73
2018-02-02T05:17:44.365Z,40.22
2018-02-02T05:20:11.886Z,40.13
2018-02-02T05:22:39.472Z,40.14
2018-02-02T05:25:07.160Z,40.15
2018-02-02T05:27:34.682Z,40.26
2018-02-02T05:30:02.328Z,40.06
2018-02-02T05:32:29.983Z,40.30
2018-02-02T05:34:57.577Z,40.46
2018-02-02T05:37:25.173Z,40.68
2018-02-02T05:39:52.820Z,40.69
2018-02-02T05:42:20.414Z,40.15
2018-02-02T05:44:48.013Z,31.16
2018-02-02T05:47:15.619Z,29.58
2018-02-02T05:49:43.213Z,28.76
2018-02-02T05:52:10.805Z,28.57
2018-02-02T05:54:38.343Z,31.21
2018-02-02T05:57:05.932Z,32.51
2018-02-02T05:59:33.581Z,33.54
2018-02-02T06:02:01.207Z,34.43
2018-02-02T06:04:28.941Z,34.83
2018-02-02T06:06:56.463Z,34.84
2018-02-02T06:09:23.990Z,35.14
2018-02-02T06:11:51.528Z,35.13
2018-02-02T06:14:19.046Z,35.27
2018-02-02T06:16:46.631Z,35.56
2018-02-02T06:19:26.044Z,35.79
2018-02-02T06:21:53.695Z,36.01
2018-02-02T06:24:21.223Z,36.13
2018-02-02T06:26:48.813Z,36.32
2018-02-02T06:29:16.339Z,36.49
2018-02-02T06:31:43.865Z,36.60
2018-02-02T06:34:11.402Z,36.72
2018-02-02T06:36:38.995Z,36.73
2018-02-02T06:39:06.526Z,36.80
2018-02-02T06:41:34.220Z,36.97
2018-02-02T06:44:01.868Z,36.98
2018-02-02T06:46:29.393Z,37.01
2018-02-02T06:48:56.914Z,37.10
2018-02-02T06:51:24.519Z,37.22
2018-02-02T06:53:52.176Z,37.22
2018-02-02T06:56:19.702Z,37.35
2018-02-02T06:58:47.260Z,37.31
2018-02-02T07:01:14.858Z,37.25
2018-02-02T07:03:42.558Z,37.51
2018-02-02T07:06:10.197Z,37.63
2018-02-02T07:08:37.727Z,37.67
2018-02-02T07:11:05.330Z,37.79
2018-02-02T07:13:32.950Z,37.85
2018-02-02T07:16:00.565Z,37.99
2018-02-02T07:18:28.161Z,37.99
2018-02-02T07:20:55.683Z,38.01
2018-02-02T07:23:23.267Z,38.14
2018-02-02T07:25:50.900Z,37.92
2018-02-02T07:28:18.492Z,38.06
2018-02-02T07:30:46.097Z,38.15
2018-02-02T07:33:13.748Z,38.15
2018-02-02T07:35:41.396Z,38.22
2018-02-02T07:38:08.995Z,38.23
2018-02-02T07:40:36.644Z,38.29
2018-02-02T07:43:04.331Z,38.32
2018-02-02T07:45:31.924Z,38.28
2018-02-02T07:47:59.533Z,38.33
2018-02-02T07:50:27.091Z,38.29
2018-02-02T07:52:54.672Z,38.39
2018-02-02T07:55:22.360Z,38.29
2018-02-02T07:57:50.019Z,38.37
2018-02-02T08:00:17.681Z,38.33
2018-02-02T08:02:45.214Z,38.38
2018-02-02T08:05:12.847Z,39.00
2018-02-02T08:07:40.362Z,39.25
2018-02-02T08:10:08.017Z,38.95
2018-02-02T08:12:35.638Z,38.95
2018-02-02T08:15:03.237Z,39.08
2018-02-02T08:17:30.767Z,39.04
2018-02-02T08:19:58.377Z,39.12
2018-02-02T08:22:26.004Z,39.13
2018-02-02T08:24:53.638Z,39.13
2018-02-02T08:27:21.285Z,39.17
2018-02-02T08:29:48.835Z,39.04
2018-02-02T08:32:16.430Z,38.96
2018-02-02T08:34:44.041Z,38.98
2018-02-02T08:37:11.664Z,38.96
2018-02-02T08:39:39.485Z,38.90
2018-02-02T08:42:07.072Z,38.84
2018-02-02T08:44:35.882Z,38.69
2018-02-02T08:47:03.481Z,38.81
2018-02-02T08:49:31.068Z,38.73
2018-02-02T08:51:58.652Z,38.50
2018-02-02T08:54:26.249Z,38.48
2018-02-02T08:56:53.775Z,38.34
2018-02-02T08:59:21.369Z,38.29
2018-02-02T09:01:54.409Z,38.16
2018-02-02T09:04:22.132Z,38.18
2018-02-02T09:06:49.720Z,37.85
2018-02-02T09:09:17.309Z,37.91
2018-02-02T09:11:44.934Z,37.67
2018-02-02T09:14:12.592Z,37.58
2018-02-02T09:16:40.235Z,37.32
2018-02-02T09:19:08.072Z,37.27
2018-02-02T09:21:35.731Z,37.37
2018-02-02T09:24:03.250Z,37.55
2018-02-02T09:26:30.897Z,37.65
2018-02-02T09:28:59.837Z,37.93
2018-02-02T09:31:27.924Z,37.93
2018-02-02T09:33:55.329Z,38.13
2018-02-02T09:36:22.994Z,38.19
2018-02-02T09:38:50.646Z,38.20
2018-02-02T09:41:18.238Z,38.04
2018-02-02T09:43:45.880Z,37.91
2018-02-02T09:46:13.466Z,37.65
2018-02-02T09:48:41.113Z,37.35
2018-02-02T09:51:08.700Z,37.11
2018-02-02T09:53:36.296Z,36.97
2018-02-02T09:56:03.814Z,36.88
2018-02-02T09:58:31.338Z,36.81
2018-02-02T10:00:58.989Z,36.78
2018-02-02T10:03:26.526Z,36.66
2018-02-02T10:05:54.176Z,36.62
2018-02-02T10:08:21.768Z,36.43
2018-02-02T10:10:49.384Z,36.31
2018-02-02T10:13:16.981Z,36.18
2018-02-02T10:15:44.598Z,36.29
2018-02-02T10:18:12.136Z,36.16
2018-02-02T10:20:39.741Z,36.23
2018-02-02T10:23:07.335Z,36.43
2018-02-02T10:25:34.929Z,36.31
2018-02-02T10:28:02.517Z,36.17
2018-02-02T10:30:30.109Z,35.97
2018-02-02T10:32:57.768Z,35.96
2018-02-02T10:35:25.360Z,28.90
2018-02-02T10:37:52.991Z,27.08
2018-02-02T10:40:20.640Z,25.53
2018-02-02T10:42:48.162Z,26.35
2018-02-02T10:45:15.751Z,25.71
2018-02-02T10:47:43.392Z,29.25
2018-02-02T10:50:10.996Z,28.76
2018-02-02T10:52:38.660Z,29.12
2018-02-02T10:55:06.310Z,29.44
2018-02-02T10:57:33.902Z,30.19
2018-02-02T11:00:01.428Z,30.15
2018-02-02T11:02:34.792Z,30.23
2018-02-02T11:05:02.464Z,30.26
2018-02-02T11:07:30.067Z,30.45
2018-02-02T11:09:57.665Z,30.68
2018-02-02T11:12:25.190Z,30.74
2018-02-02T11:14:52.844Z,30.95
2018-02-02T11:17:20.366Z,31.05
2018-02-02T11:19:47.887Z,31.28
2018-02-02T11:22:15.531Z,31.37
2018-02-02T11:24:43.125Z,32.21
2018-02-02T11:27:10.662Z,32.51
2018-02-02T11:29:38.312Z,32.10
2018-02-02T11:32:05.834Z,32.25
2018-02-02T11:34:33.480Z,32.32
2018-02-02T11:37:01.081Z,32.47
2018-02-02T11:39:28.797Z,32.60
2018-02-02T11:41:56.393Z,32.70
2018-02-02T11:44:23.984Z,32.90
2018-02-02T11:46:51.510Z,33.18
2018-02-02T11:49:19.156Z,33.33
2018-02-02T11:51:46.757Z,33.52
2018-02-02T11:54:14.357Z,33.69
2018-02-02T11:56:41.882Z,33.90
2018-02-02T11:59:09.482Z,34.21
2018-02-02T12:01:37.035Z,34.21
2018-02-02T12:04:04.629Z,34.35
2018-02-02T12:06:32.174Z,34.50
2018-02-02T12:08:59.776Z,34.55
2018-02-02T12:11:27.367Z,34.60
2018-02-02T12:13:55.128Z,34.70
2018-02-02T12:16:22.819Z,34.82
2018-02-02T13:02:53.117Z,37.30
2018-02-02T13:05:20.760Z,37.44
2018-02-02T13:07:48.293Z,37.59
2018-02-02T13:10:15.888Z,37.56
2018-02-02T13:12:43.418Z,37.48
2018-02-02T13:15:10.947Z,37.34
2018-02-02T13:17:38.541Z,37.25
2018-02-02T13:20:06.168Z,37.20
2018-02-02T13:22:33.856Z,37.00
2018-02-02T13:25:01.392Z,37.02
2018-02-02T13:27:29.022Z,36.99
2018-02-02T13:29:56.553Z,37.00
2018-02-02T13:32:24.083Z,36.95
2018-02-02T13:34:51.684Z,36.92
2018-02-02T13:37:19.293Z,36.80
2018-02-02T13:39:46.876Z,36.77
2018-02-02T13:42:14.525Z,36.80
2018-02-02T13:44:42.132Z,36.78
2018-02-02T13:47:09.659Z,36.79
2018-02-02T13:49:37.253Z,36.82
2018-02-02T13:52:04.906Z,36.92
2018-02-02T13:54:32.492Z,36.95
2018-02-02T13:57:00.090Z,37.04
2018-02-02T13:59:27.689Z,37.11
2018-02-02T14:01:55.267Z,37.12
2018-02-02T14:04:22.771Z,37.19
2018-02-02T14:06:50.297Z,37.17
2018-02-02T14:09:17.889Z,37.21
2018-02-02T14:11:45.479Z,37.13
2018-02-02T14:14:13.006Z,37.20
2018-02-02T14:16:40.596Z,37.01
2018-02-02T14:19:08.123Z,37.02
2018-02-02T14:21:35.708Z,37.07
2018-02-02T14:24:03.320Z,37.14
2018-02-02T14:26:30.908Z,37.27
2018-02-02T14:28:58.501Z,37.37
2018-02-02T14:31:26.122Z,37.36
2018-02-02T14:33:53.737Z,37.44
2018-02-02T14:36:21.369Z,37.35
2018-02-02T14:38:49.025Z,37.44
2018-02-02T14:41:16.617Z,37.52
2018-02-02T16:18:42.292Z,36.40
2018-02-02T16:21:10.002Z,36.52
2018-02-02T16:23:37.629Z,36.47
2018-02-02T16:26:05.313Z,36.61
2018-02-02T16:28:32.862Z,36.51
2018-02-02T16:31:00.477Z,36.56
2018-02-02T16:33:28.007Z,36.62
2018-02-02T16:35:55.583Z,37.00
2018-02-02T16:38:23.156Z,37.00
2018-02-02T16:41:04.099Z,37.49
2018-02-02T16:43:36.061Z,37.65
2018-02-02T16:46:10.525Z,37.34
2018-02-02T16:48:38.776Z,37.30
2018-02-02T16:51:06.621Z,37.53
2018-02-02T16:53:40.387Z,38.05
2018-02-02T16:56:08.045Z,37.83
2018-02-02T16:58:47.516Z,38.16
2018-02-02T17:01:15.951Z,39.01
2018-02-02T17:03:44.295Z,39.53
2018-02-02T17:06:11.901Z,39.67
2018-02-02T17:08:39.451Z,39.82
2018-02-02T17:11:07.004Z,39.44
2018-02-02T17:13:41.582Z,39.96
2018-02-02T17:16:09.835Z,39.24
2018-02-02T17:18:37.507Z,39.22
2018-02-02T17:21:05.116Z,39.23
2018-02-02T17:23:33.894Z,38.20
2018-02-02T17:26:01.742Z,39.09
2018-02-02T17:28:29.341Z,38.45
2018-02-02T17:30:56.878Z,38.45
2018-02-02T17:33:24.576Z,39.27
2018-02-02T17:35:52.220Z,39.06
2018-02-02T17:38:19.742Z,39.41
2018-02-02T17:40:47.398Z,39.42
2018-02-02T17:43:15.004Z,39.13
2018-02-02T17:45:42.603Z,39.70
2018-02-02T17:48:10.262Z,40.36
2018-02-02T17:50:37.789Z,40.64
2018-02-02T17:53:05.394Z,41.16
2018-02-02T17:55:33.006Z,41.28
2018-02-02T17:58:00.530Z,41.45
2018-02-02T18:00:32.710Z,41.19
2018-02-02T18:03:01.067Z,41.21
2018-02-02T18:05:28.615Z,41.08
2018-02-02T18:07:56.236Z,40.67
2018-02-02T18:10:24.022Z,40.67
2018-02-02T18:12:51.642Z,40.65
2018-02-02T18:15:19.452Z,40.85
2018-02-02T18:17:47.109Z,40.81
2018-02-02T18:20:14.931Z,41.15
2018-02-02T18:22:42.526Z,40.87
2018-02-02T18:25:10.124Z,41.05
2018-02-02T18:27:37.655Z,40.81
2018-02-02T18:30:06.984Z,40.15
2018-02-02T18:32:34.646Z,41.49
2018-02-02T18:35:02.302Z,42.25
2018-02-02T18:37:29.963Z,42.33
2018-02-02T18:39:57.568Z,42.53
2018-02-02T18:42:25.165Z,41.90
2018-02-02T18:44:52.845Z,41.81
2018-02-02T18:47:20.446Z,42.42
2018-02-02T18:49:48.110Z,42.29
2018-02-02T18:52:15.696Z,42.95
2018-02-02T18:54:43.453Z,43.22
2018-02-02T18:57:11.085Z,43.11
2018-02-02T18:59:38.751Z,42.89
2018-02-02T19:02:06.439Z,43.29
2018-02-02T19:04:34.040Z,43.18
2018-02-02T19:07:01.778Z,43.55
2018-02-02T19:09:29.465Z,43.90
2018-02-02T19:11:57.077Z,43.80
2018-02-02T19:14:24.678Z,43.63
2018-02-02T19:16:52.279Z,43.46
2018-02-02T19:19:20.007Z,43.66
2018-02-02T19:21:47.553Z,43.59
2018-02-02T19:24:15.184Z,44.10
2018-02-02T19:26:43.558Z,43.79
2018-02-02T19:29:11.315Z,45.33
2018-02-02T19:31:38.940Z,44.38
2018-02-02T19:34:06.659Z,43.89
2018-02-02T19:36:34.325Z,43.68
2018-02-02T19:39:02.042Z,44.25
2018-02-02T19:41:29.694Z,44.11
2018-02-02T19:43:57.291Z,43.74
2018-02-02T19:46:25.403Z,44.04
2018-02-02T19:48:53.055Z,43.81
2018-02-02T19:51:20.843Z,43.86
2018-02-02T19:53:49.525Z,44.19
2018-02-02T19:56:17.200Z,43.90
2018-02-02T19:58:45.838Z,43.28
2018-02-02T20:01:14.060Z,43.82
2018-02-02T20:03:41.915Z,43.76
2018-02-02T20:06:09.977Z,43.85
2018-02-02T20:08:38.008Z,43.19
2018-02-02T20:11:05.832Z,42.87
2018-02-02T20:13:34.787Z,42.83
2018-02-02T20:16:02.473Z,43.22
2018-02-02T20:18:30.125Z,43.43
2018-02-02T20:20:57.901Z,43.48
2018-02-02T20:23:25.508Z,43.08
2018-02-02T20:25:53.102Z,43.20
2018-02-02T20:28:20.689Z,42.80
2018-02-02T20:30:48.275Z,42.64
2018-02-02T20:33:16.026Z,43.45
2018-02-02T20:35:43.616Z,43.02
2018-02-02T20:38:11.151Z,43.47
2018-02-02T20:40:38.761Z,43.20
2018-02-02T20:43:06.291Z,42.66
2018-02-02T20:45:33.889Z,42.42
2018-02-02T20:48:01.563Z,43.00
2018-02-02T20:50:29.159Z,42.20
2018-02-02T20:52:56.757Z,41.88
2018-02-02T20:55:24.387Z,42.32
2018-02-02T20:57:51.984Z,41.76
2018-02-02T21:00:19.584Z,41.98
2018-02-02T21:02:47.225Z,41.87
2018-02-02T21:05:14.882Z,41.64
2018-02-02T21:07:42.479Z,40.91
2018-02-02T21:10:10.080Z,40.81
2018-02-02T21:12:37.732Z,41.06
2018-02-02T21:15:05.262Z,41.03
2018-02-02T21:17:32.856Z,40.94
2018-02-02T21:20:00.457Z,41.00
2018-02-02T21:22:28.111Z,40.95
2018-02-02T21:24:55.634Z,40.74
2018-02-02T21:27:23.336Z,41.09
2018-02-02T21:29:50.992Z,41.14
2018-02-02T21:32:18.535Z,41.24
2018-02-02T21:34:46.158Z,41.30
2018-02-02T21:37:13.991Z,41.23
2018-02-02T21:39:41.601Z,40.95
2018-02-02T21:42:09.126Z,41.10
2018-02-02T21:44:36.718Z,41.45
2018-02-02T21:47:04.356Z,41.35
2018-02-02T21:49:32.037Z,41.21
2018-02-02T21:51:59.619Z,41.22
2018-02-02T21:54:27.267Z,41.40
2018-02-02T21:56:54.811Z,40.99
2018-02-02T21:59:22.404Z,40.61
2018-02-02T22:01:50.187Z,40.64
2018-02-02T22:04:17.921Z,41.23
2018-02-02T22:06:45.527Z,40.86
2018-02-02T22:09:13.175Z,40.71
2018-02-02T22:11:40.699Z,40.91
2018-02-02T22:14:08.292Z,41.22
2018-02-02T22:16:35.875Z,41.09
2018-02-02T22:19:03.439Z,41.14
2018-02-02T22:21:30.975Z,41.19
2018-02-02T22:23:58.571Z,40.36
2018-02-02T22:26:26.157Z,40.32
2018-02-02T22:28:53.788Z,40.12
2018-02-02T22:31:21.399Z,40.87
2018-02-02T22:33:49.000Z,40.96
2018-02-02T22:36:16.776Z,41.00
2018-02-02T22:38:44.307Z,40.47
2018-02-02T22:41:11.827Z,40.19
2018-02-02T22:43:39.405Z,40.98
2018-02-02T22:46:07.013Z,40.82
2018-02-02T22:48:34.656Z,40.47
2018-02-02T22:51:02.175Z,40.38
2018-02-02T22:53:29.765Z,39.81
2018-02-02T22:55:57.279Z,39.79
2018-02-02T22:58:24.869Z,39.95
2018-02-02T23:00:52.387Z,40.09
2018-02-02T23:03:19.903Z,39.53
2018-02-02T23:05:47.548Z,39.93
2018-02-02T23:08:15.067Z,39.99
2018-02-02T23:10:42.658Z,39.84
2018-02-02T23:13:10.182Z,39.54
2018-02-02T23:15:37.817Z,39.61
2018-02-02T23:18:05.418Z,39.80
2018-02-02T23:20:33.199Z,39.72
2018-02-02T23:23:00.715Z,39.82
2018-02-02T23:25:28.364Z,39.89
2018-02-02T23:27:55.964Z,39.96
2018-02-02T23:30:23.496Z,39.68
2018-02-02T23:32:51.054Z,40.06
2018-02-02T23:35:18.696Z,40.17
2018-02-02T23:37:46.280Z,39.79
2018-02-02T23:40:13.921Z,40.02
2018-02-02T23:42:41.435Z,40.34
2018-02-02T23:45:09.037Z,40.11
2018-02-02T23:47:36.611Z,40.16
2018-02-02T23:50:04.153Z,40.12
2018-02-02T23:52:31.839Z,40.19
2018-02-02T23:54:59.437Z,39.91
2018-02-02T23:57:27.003Z,40.15
2018-02-02T23:59:54.640Z,40.07
